Time;durP1;ratioP1;P1;durP2;ratioP2;P2;SDS_P1;SDS_P2;PMS_P1;PMS_P2;Temp;Humidity;BMP_temperature;BMP_pressure;BME280_temperature;BME280_humidity;BME280_pressure;Samples;Min_cycle;Max_cycle;Signal;HPM_P1;HPM_P2
2021/09/02 00:02:00;;;;;;;5.05;3.72;;;10.40;88.90;;;;;;4932114;29;20040;-68
2021/09/02 00:04:28;;;;;;;5.00;3.42;;;10.40;89.20;;;;;;4927093;29;20393;-68
2021/09/02 00:06:56;;;;;;;7.85;3.70;;;10.40;88.60;;;;;;4937380;29;20389;-69
2021/09/02 00:09:22;;;;;;;5.35;3.25;;;10.40;88.60;;;;;;4941812;28;20062;-69
2021/09/02 00:11:48;;;;;;;4.40;3.35;;;10.40;88.60;;;;;;4933788;29;20027;-69
2021/09/02 00:14:13;;;;;;;8.15;3.67;;;10.40;88.70;;;;;;4936102;29;20039;-69
2021/09/02 00:16:40;;;;;;;4.13;3.15;;;10.40;88.70;;;;;;4932979;29;20035;-69
2021/09/02 00:19:05;;;;;;;12.50;3.60;;;10.40;88.50;;;;;;4935271;28;20492;-69
2021/09/02 00:21:31;;;;;;;4.93;3.63;;;10.40;88.10;;;;;;4930993;29;20031;-70
2021/09/02 00:23:57;;;;;;;5.18;3.50;;;10.30;87.10;;;;;;4934242;29;20524;-69
2021/09/02 00:26:22;;;;;;;5.50;3.55;;;10.30;87.50;;;;;;4930569;29;20028;-69
2021/09/02 00:28:48;;;;;;;4.38;3.35;;;10.30;87.60;;;;;;4935264;29;20118;-68
2021/09/02 00:31:13;;;;;;;5.88;4.05;;;10.30;87.40;;;;;;4929628;29;20028;-69
2021/09/02 00:33:39;;;;;;;4.65;3.47;;;10.30;87.80;;;;;;4930928;29;20042;-69
2021/09/02 00:36:06;;;;;;;3.90;3.50;;;10.30;87.60;;;;;;4937651;29;20032;-69
2021/09/02 00:38:32;;;;;;;6.53;4.15;;;10.30;87.30;;;;;;4933156;29;20047;-69
2021/09/02 00:40:58;;;;;;;7.55;4.13;;;10.20;88.30;;;;;;4930531;29;20051;-69
2021/09/02 00:43:26;;;;;;;6.03;4.25;;;10.00;89.10;;;;;;4938630;29;20034;-70
2021/09/02 00:45:52;;;;;;;5.63;4.07;;;10.00;89.60;;;;;;4940650;28;20031;-69
2021/09/02 00:48:18;;;;;;;6.95;3.97;;;10.00;89.40;;;;;;4941288;29;20020;-69
2021/09/02 00:50:44;;;;;;;5.03;3.78;;;10.10;88.80;;;;;;4934750;29;20025;-69
2021/09/02 00:53:10;;;;;;;7.03;3.90;;;10.00;88.10;;;;;;4937437;28;20067;-69
2021/09/02 00:55:35;;;;;;;3.10;2.55;;;10.00;87.30;;;;;;4934488;29;20042;-69
2021/09/02 00:58:01;;;;;;;2.60;2.40;;;10.00;87.40;;;;;;4936125;28;20024;-70
2021/09/02 01:00:27;;;;;;;2.10;1.90;;;9.90;87.30;;;;;;4930453;28;20042;-69
2021/09/02 01:02:53;;;;;;;2.40;2.20;;;9.90;87.70;;;;;;4934538;28;20031;-69
2021/09/02 01:05:20;;;;;;;2.38;2.17;;;9.90;87.50;;;;;;4932125;29;20024;-69
2021/09/02 01:07:46;;;;;;;2.08;1.88;;;9.90;87.40;;;;;;4939104;28;20104;-69
2021/09/02 01:10:12;;;;;;;2.83;2.58;;;9.90;87.40;;;;;;4928486;28;20042;-69
2021/09/02 01:12:40;;;;;;;7.57;2.92;;;9.80;87.30;;;;;;4965190;28;20126;-69
2021/09/02 01:15:14;;;;;;;5.10;3.33;;;9.80;87.50;;;;;;4931506;28;20056;-73
2021/09/02 01:17:42;;;;;;;4.32;3.05;;;9.80;87.40;;;;;;4930748;29;20072;-69
2021/09/02 01:20:09;;;;;;;3.72;3.10;;;9.80;87.50;;;;;;4930518;28;20061;-69
2021/09/02 01:22:36;;;;;;;6.50;4.50;;;9.70;88.20;;;;;;4932635;29;20039;-68
2021/09/02 01:25:09;;;;;;;5.45;4.22;;;9.70;88.30;;;;;;4932561;29;20035;-69
2021/09/02 01:27:35;;;;;;;4.00;3.05;;;9.70;88.30;;;;;;4936328;28;20110;-69
2021/09/02 01:30:07;;;;;;;7.72;3.88;;;9.80;88.00;;;;;;4931717;28;20040;-68
2021/09/02 01:32:37;;;;;;;5.07;3.50;;;9.70;87.30;;;;;;4930195;28;20044;-69
2021/09/02 01:35:05;;;;;;;5.20;3.65;;;9.60;87.60;;;;;;4945310;28;20030;-69
2021/09/02 01:37:56;;;;;;;6.03;3.75;;;9.50;88.10;;;;;;4957610;28;20123;-69
2021/09/02 01:40:25;;;;;;;6.40;3.78;;;9.50;88.50;;;;;;4929579;29;20084;-69
2021/09/02 01:42:50;;;;;;;;;;;9.40;89.70;;;;;;4933253;29;20040;-69
2021/09/02 01:45:17;;;;;;;5.13;3.65;;;9.40;90.00;;;;;;4936288;28;19930;-69
2021/09/02 01:47:44;;;;;;;5.32;3.53;;;9.40;89.70;;;;;;4931170;29;20036;-67
2021/09/02 01:50:12;;;;;;;4.72;3.65;;;9.50;89.30;;;;;;4929239;28;20031;-69
2021/09/02 01:52:39;;;;;;;4.68;3.17;;;9.40;88.90;;;;;;4936935;28;20042;-69
2021/09/02 01:55:07;;;;;;;5.18;3.47;;;9.40;87.70;;;;;;4937466;29;20066;-69
2021/09/02 01:57:33;;;;;;;7.15;3.83;;;9.40;88.60;;;;;;4933002;29;20405;-69
2021/09/02 01:59:58;;;;;;;4.68;3.28;;;9.50;88.70;;;;;;4927698;29;20063;-69
2021/09/02 02:02:24;;;;;;;4.28;3.55;;;9.40;88.30;;;;;;4940067;28;20444;-69
2021/09/02 02:04:50;;;;;;;11.30;3.97;;;9.40;88.90;;;;;;4936917;28;20100;-69
2021/09/02 02:07:16;;;;;;;6.18;3.53;;;9.40;88.90;;;;;;4935110;28;20036;-69
2021/09/02 02:09:42;;;;;;;5.53;3.53;;;9.40;89.00;;;;;;4934112;29;20098;-70
2021/09/02 02:12:08;;;;;;;5.13;3.83;;;9.30;89.60;;;;;;4934755;29;20023;-69
2021/09/02 02:14:35;;;;;;;3.90;3.42;;;9.30;89.80;;;;;;4931445;29;20058;-69
2021/09/02 02:17:01;;;;;;;7.72;3.50;;;9.30;90.00;;;;;;4931261;29;20043;-69
2021/09/02 02:19:26;;;;;;;4.75;3.30;;;9.30;89.50;;;;;;4931363;29;20370;-69
2021/09/02 02:21:52;;;;;;;3.80;2.92;;;9.30;89.20;;;;;;4929194;28;20034;-69
2021/09/02 02:24:18;;;;;;;3.10;2.60;;;9.20;87.80;;;;;;4931236;29;20020;-70
2021/09/02 02:26:43;;;;;;;3.33;2.47;;;9.10;88.80;;;;;;4935300;29;20523;-70
2021/09/02 02:29:09;;;;;;;17.65;2.83;;;9.10;88.00;;;;;;4935072;29;20485;-69
2021/09/02 02:31:35;;;;;;;2.35;2.20;;;9.10;88.30;;;;;;4937065;28;20092;-70
2021/09/02 02:34:00;;;;;;;2.88;2.20;;;9.10;88.30;;;;;;4941237;28;20470;-70
2021/09/02 02:36:26;;;;;;;3.20;2.50;;;9.20;88.80;;;;;;4944975;29;20039;-69
2021/09/02 02:38:52;;;;;;;3.60;2.97;;;9.10;88.80;;;;;;4945774;28;20071;-69
2021/09/02 02:41:18;;;;;;;3.25;2.90;;;9.20;88.90;;;;;;4943815;28;20103;-69
2021/09/02 02:43:43;;;;;;;3.17;2.42;;;9.10;89.10;;;;;;4942607;28;20028;-69
2021/09/02 02:46:09;;;;;;;8.27;2.55;;;9.10;88.90;;;;;;4936449;28;20039;-69
2021/09/02 02:48:35;;;;;;;3.72;2.25;;;8.90;89.50;;;;;;4967712;28;20036;-69
2021/09/02 02:51:01;;;;;;;2.03;1.90;;;8.90;90.10;;;;;;4946508;29;20082;-69
2021/09/02 02:53:26;;;;;;;2.20;2.00;;;8.80;90.10;;;;;;4936392;29;20159;-69
2021/09/02 02:55:52;;;;;;;2.28;2.08;;;8.80;90.20;;;;;;4938362;29;20122;-69
2021/09/02 02:58:18;;;;;;;4.25;2.30;;;8.70;90.50;;;;;;4940224;29;20038;-70
2021/09/02 03:00:43;;;;;;;2.58;2.38;;;8.50;90.80;;;;;;4938693;28;20031;-70
2021/09/02 03:03:09;;;;;;;2.53;2.33;;;8.50;91.30;;;;;;4942027;28;20036;-70
2021/09/02 03:05:35;;;;;;;2.97;2.72;;;8.60;91.20;;;;;;4944965;29;20071;-69
2021/09/02 03:08:03;;;;;;;3.38;3.00;;;8.70;91.00;;;;;;4932276;29;20023;-70
2021/09/02 03:10:29;;;;;;;4.00;3.03;;;8.60;91.20;;;;;;4934827;29;20027;-69
2021/09/02 03:12:54;;;;;;;4.32;3.33;;;8.50;91.10;;;;;;4940729;29;20043;-71
2021/09/02 03:15:21;;;;;;;4.57;2.95;;;8.50;91.30;;;;;;4936901;29;20094;-69
2021/09/02 03:17:47;;;;;;;4.63;3.30;;;8.50;91.60;;;;;;4940827;28;20035;-70
2021/09/02 03:20:13;;;;;;;3.38;2.70;;;8.50;91.30;;;;;;4940923;28;20042;-71
2021/09/02 03:22:38;;;;;;;3.63;2.30;;;8.50;90.70;;;;;;4940977;29;20051;-69
2021/09/02 03:25:05;;;;;;;4.22;2.80;;;8.50;90.30;;;;;;4939582;29;20134;-69
2021/09/02 03:27:31;;;;;;;2.20;2.00;;;8.50;90.20;;;;;;4943602;28;20035;-69
2021/09/02 03:29:56;;;;;;;3.30;2.53;;;8.50;90.10;;;;;;4942174;29;20031;-69
2021/09/02 03:32:22;;;;;;;2.22;2.10;;;8.50;90.00;;;;;;4940043;28;20508;-69
2021/09/02 03:34:48;;;;;;;2.67;1.98;;;8.40;89.70;;;;;;4938805;28;20032;-69
2021/09/02 03:37:13;;;;;;;3.58;2.53;;;8.40;89.90;;;;;;4932857;29;20035;-70
2021/09/02 03:39:39;;;;;;;3.05;2.63;;;8.30;90.10;;;;;;4938667;28;20051;-69
2021/09/02 03:42:05;;;;;;;2.85;2.15;;;8.30;90.30;;;;;;4937859;28;20047;-69
2021/09/02 03:44:30;;;;;;;3.97;3.30;;;8.30;90.50;;;;;;4934985;29;20038;-69
2021/09/02 03:46:56;;;;;;;2.80;2.60;;;8.10;91.00;;;;;;4931204;28;20032;-68
2021/09/02 03:49:22;;;;;;;4.10;2.75;;;8.10;91.60;;;;;;4942490;29;20094;-69
2021/09/02 03:51:47;;;;;;;2.58;2.38;;;8.20;91.50;;;;;;4931837;29;20437;-69
2021/09/02 03:54:13;;;;;;;5.22;3.60;;;8.20;91.20;;;;;;4933107;29;20035;-69
2021/09/02 03:56:38;;;;;;;4.47;3.58;;;8.20;91.40;;;;;;4938394;29;20039;-68
2021/09/02 03:59:04;;;;;;;5.80;3.95;;;8.20;91.60;;;;;;4935142;29;20071;-69
2021/09/02 04:01:29;;;;;;;3.53;3.03;;;8.30;91.10;;;;;;4939160;29;20035;-69
2021/09/02 04:03:55;;;;;;;4.03;2.88;;;8.30;91.00;;;;;;4939761;29;20039;-68
2021/09/02 04:06:21;;;;;;;5.72;3.13;;;8.30;91.40;;;;;;4945034;28;20066;-69
2021/09/02 04:08:47;;;;;;;4.13;2.65;;;8.30;91.10;;;;;;4931334;29;20028;-69
2021/09/02 04:11:13;;;;;;;3.63;2.53;;;8.30;91.10;;;;;;4934460;29;20020;-68
2021/09/02 04:13:38;;;;;;;4.55;2.90;;;8.40;90.90;;;;;;4935780;29;20032;-69
2021/09/02 04:16:04;;;;;;;4.88;2.50;;;8.40;90.70;;;;;;4940177;28;20042;-68
2021/09/02 04:18:30;;;;;;;5.38;2.72;;;8.40;90.50;;;;;;4939063;28;20047;-68
2021/09/02 04:20:57;;;;;;;3.92;3.00;;;8.40;90.40;;;;;;4949521;28;20512;-69
2021/09/02 04:23:23;;;;;;;4.72;2.50;;;8.40;90.40;;;;;;4933948;28;20027;-68
2021/09/02 04:25:49;;;;;;;3.65;3.20;;;8.40;90.40;;;;;;4931993;29;20091;-68
2021/09/02 04:28:14;;;;;;;3.78;2.97;;;8.40;90.60;;;;;;4936031;28;20019;-69
2021/09/02 04:30:40;;;;;;;3.80;3.20;;;8.40;90.50;;;;;;4933513;28;20043;-69
2021/09/02 04:33:05;;;;;;;4.97;3.60;;;8.40;90.50;;;;;;4947224;28;20023;-68
2021/09/02 04:35:31;;;;;;;3.58;2.80;;;8.40;90.40;;;;;;4946262;28;20035;-68
2021/09/02 04:37:57;;;;;;;3.45;3.15;;;8.30;90.90;;;;;;4933527;28;20080;-68
2021/09/02 04:40:23;;;;;;;3.33;2.67;;;8.20;91.10;;;;;;4941350;28;20024;-69
2021/09/02 04:42:49;;;;;;;4.20;3.42;;;8.30;91.00;;;;;;4943079;29;20032;-69
2021/09/02 04:45:14;;;;;;;5.13;3.45;;;8.40;90.80;;;;;;4938786;28;20475;-68
2021/09/02 04:47:40;;;;;;;2.30;2.10;;;8.30;90.30;;;;;;4929221;29;20051;-69
2021/09/02 04:50:09;;;;;;;2.83;2.35;;;8.10;89.40;;;;;;4940402;29;20019;-69
2021/09/02 04:52:35;;;;;;;4.88;3.03;;;8.00;90.10;;;;;;4939004;28;20030;-68
2021/09/02 04:55:00;;;;;;;2.72;2.53;;;8.00;90.60;;;;;;4933979;28;20027;-69
2021/09/02 04:57:26;;;;;;;3.88;2.75;;;8.00;90.90;;;;;;4937755;29;20039;-69
2021/09/02 04:59:52;;;;;;;4.25;3.10;;;8.00;90.70;;;;;;4939560;29;20504;-69
2021/09/02 05:02:17;;;;;;;4.75;3.35;;;8.00;90.80;;;;;;4936221;28;20500;-68
2021/09/02 05:04:43;;;;;;;5.07;3.08;;;8.10;90.90;;;;;;4940319;28;20027;-68
2021/09/02 05:07:09;;;;;;;7.10;3.55;;;8.10;91.20;;;;;;4938593;29;20036;-69
2021/09/02 05:09:35;;;;;;;6.30;3.60;;;8.20;91.30;;;;;;4931376;28;20110;-69
2021/09/02 05:12:00;;;;;;;7.75;4.18;;;8.20;91.60;;;;;;4928825;29;20035;-69
2021/09/02 05:14:26;;;;;;;6.90;4.47;;;8.20;91.80;;;;;;4933398;28;20024;-69
2021/09/02 05:16:51;;;;;;;8.68;4.03;;;8.20;92.10;;;;;;4933395;28;20035;-69
2021/09/02 05:19:17;;;;;;;9.90;4.90;;;8.30;92.40;;;;;;4931656;28;20040;-70
2021/09/02 05:21:43;;;;;;;33.10;6.30;;;8.30;92.40;;;;;;4933701;29;20035;-69
2021/09/02 05:24:09;;;;;;;17.60;4.15;;;8.40;92.80;;;;;;4943526;29;20035;-69
2021/09/02 05:26:34;;;;;;;37.03;4.75;;;8.40;92.80;;;;;;4930437;28;20068;-69
2021/09/02 05:29:00;;;;;;;8.68;3.53;;;8.40;92.80;;;;;;4945440;29;20023;-70
2021/09/02 05:31:26;;;;;;;6.03;3.75;;;8.30;92.60;;;;;;4934844;29;20035;-69
2021/09/02 05:33:53;;;;;;;8.32;4.25;;;8.30;93.00;;;;;;4932861;29;20024;-69
2021/09/02 05:36:19;;;;;;;6.28;3.88;;;8.30;93.20;;;;;;4933456;29;20032;-69
2021/09/02 05:38:45;;;;;;;7.07;4.40;;;8.40;93.20;;;;;;4930650;29;20052;-69
2021/09/02 05:41:11;;;;;;;7.03;4.45;;;8.50;93.30;;;;;;4933699;29;20098;-69
2021/09/02 05:43:37;;;;;;;5.93;4.20;;;8.50;93.50;;;;;;4932853;29;20039;-69
2021/09/02 05:46:03;;;;;;;6.43;4.20;;;8.60;93.90;;;;;;4929937;29;20035;-69
2021/09/02 05:48:29;;;;;;;5.28;4.55;;;8.70;94.20;;;;;;4930559;29;20081;-69
2021/09/02 05:50:55;;;;;;;6.75;4.75;;;8.80;94.20;;;;;;4931658;29;20806;-69
2021/09/02 05:53:21;;;;;;;10.45;4.80;;;8.90;94.10;;;;;;4930890;29;20377;-69
2021/09/02 05:55:48;;;;;;;7.32;4.70;;;9.00;94.10;;;;;;4935025;29;20038;-69
2021/09/02 05:58:14;;;;;;;8.57;5.13;;;9.00;94.20;;;;;;4937460;29;20046;-71
2021/09/02 06:00:40;;;;;;;7.78;4.55;;;9.10;93.80;;;;;;4929520;29;20493;-69
2021/09/02 06:03:06;;;;;;;8.32;5.40;;;9.20;94.10;;;;;;4931142;29;20023;-69
2021/09/02 06:05:32;;;;;;;9.70;5.95;;;9.30;94.90;;;;;;4928845;29;20031;-68
2021/09/02 06:07:58;;;;;;;9.07;5.72;;;9.40;95.10;;;;;;4934098;29;20079;-68
2021/09/02 06:10:24;;;;;;;10.70;6.15;;;9.50;95.30;;;;;;4933771;29;20030;-69
2021/09/02 06:12:50;;;;;;;8.52;5.75;;;9.60;95.30;;;;;;4929613;29;20039;-69
2021/09/02 06:15:16;;;;;;;7.60;5.30;;;9.70;94.90;;;;;;4929141;29;20039;-69
2021/09/02 06:17:41;;;;;;;10.00;6.40;;;9.80;95.10;;;;;;4929117;28;20063;-69
2021/09/02 06:20:08;;;;;;;8.82;6.10;;;9.90;95.30;;;;;;4930132;29;20366;-69
2021/09/02 06:22:34;;;;;;;9.65;5.60;;;10.00;95.50;;;;;;4937100;29;20040;-70
2021/09/02 06:25:00;;;;;;;7.97;5.40;;;10.00;95.00;;;;;;4934299;29;20032;-69
2021/09/02 06:27:27;;;;;;;10.05;5.80;;;10.10;94.80;;;;;;4933928;29;20031;-69
2021/09/02 06:29:53;;;;;;;9.13;6.30;;;10.20;95.50;;;;;;4935945;29;20032;-69
2021/09/02 06:32:19;;;;;;;12.07;7.20;;;10.30;94.80;;;;;;4933124;28;20086;-69
2021/09/02 06:34:45;;;;;;;14.18;7.68;;;10.40;95.80;;;;;;4937247;29;20060;-69
2021/09/02 06:37:10;;;;;;;13.15;8.30;;;10.50;95.80;;;;;;4932585;29;20032;-69
2021/09/02 06:39:36;;;;;;;11.52;7.40;;;10.70;96.00;;;;;;4930952;29;20114;-69
2021/09/02 06:42:02;;;;;;;13.63;9.32;;;10.80;95.70;;;;;;4931163;29;20035;-69
2021/09/02 06:44:27;;;;;;;16.20;9.13;;;11.00;96.20;;;;;;4936638;29;20481;-69
2021/09/02 06:46:53;;;;;;;13.70;8.27;;;11.20;96.60;;;;;;4930399;29;20552;-69
2021/09/02 06:49:20;;;;;;;14.38;8.70;;;11.20;96.40;;;;;;4934063;29;20031;-70
2021/09/02 06:51:46;;;;;;;15.38;9.77;;;11.40;96.60;;;;;;4930669;29;20046;-69
2021/09/02 06:54:12;;;;;;;11.63;8.02;;;11.50;96.80;;;;;;4938425;29;20032;-69
2021/09/02 06:56:38;;;;;;;14.60;8.20;;;11.70;96.70;;;;;;4936503;29;20048;-68
2021/09/02 06:59:03;;;;;;;16.02;9.30;;;11.70;96.50;;;;;;4933769;28;20079;-68
2021/09/02 07:01:29;;;;;;;12.45;8.30;;;11.80;96.30;;;;;;4930765;28;20035;-68
2021/09/02 07:03:55;;;;;;;14.85;9.40;;;11.90;96.30;;;;;;4933309;29;20579;-68
2021/09/02 07:06:21;;;;;;;16.60;8.90;;;12.00;96.50;;;;;;4930559;29;20035;-69
2021/09/02 07:08:46;;;;;;;18.02;9.23;;;12.10;96.50;;;;;;4925354;29;20023;-69
2021/09/02 07:11:12;;;;;;;15.18;9.35;;;12.40;96.70;;;;;;4930903;29;20024;-69
2021/09/02 07:13:38;;;;;;;14.07;8.70;;;12.50;96.60;;;;;;4937599;28;20489;-68
2021/09/02 07:16:04;;;;;;;15.57;8.80;;;12.60;96.00;;;;;;4943412;28;20036;-68
2021/09/02 07:18:30;;;;;;;16.42;10.20;;;12.70;95.80;;;;;;4939686;29;20412;-69
2021/09/02 07:20:55;;;;;;;17.73;10.10;;;12.80;95.70;;;;;;4936376;28;20040;-68
2021/09/02 07:23:21;;;;;;;16.00;9.63;;;12.90;96.10;;;;;;4939521;29;20035;-68
2021/09/02 07:25:47;;;;;;;18.08;9.50;;;13.00;95.50;;;;;;4959605;28;20183;-69
2021/09/02 07:28:13;;;;;;;15.27;9.52;;;13.10;95.40;;;;;;4936670;29;20056;-69
2021/09/02 07:30:40;;;;;;;12.50;8.65;;;13.30;95.90;;;;;;4937468;28;20035;-69
2021/09/02 07:33:06;;;;;;;14.77;9.53;;;13.40;95.50;;;;;;4939260;29;20057;-69
2021/09/02 07:35:32;;;;;;;11.95;8.85;;;13.60;95.00;;;;;;4932875;29;20070;-69
2021/09/02 07:37:58;;;;;;;16.52;8.95;;;13.60;94.50;;;;;;4958592;28;20208;-69
2021/09/02 07:40:23;;;;;;;11.20;8.50;;;13.80;94.60;;;;;;4945468;28;20080;-69
2021/09/02 07:42:49;;;;;;;12.52;8.50;;;13.90;94.10;;;;;;4942198;28;20078;-69
2021/09/02 07:45:14;;;;;;;16.05;8.27;;;14.00;94.60;;;;;;4938137;28;20031;-70
2021/09/02 07:47:40;;;;;;;12.05;7.35;;;14.30;93.90;;;;;;4934318;28;20043;-69
2021/09/02 07:50:07;;;;;;;8.93;5.85;;;14.30;91.70;;;;;;4936984;29;20037;-69
2021/09/02 07:52:34;;;;;;;10.88;6.45;;;14.40;90.00;;;;;;4935121;29;20032;-69
2021/09/02 07:55:00;;;;;;;12.32;6.63;;;14.50;91.10;;;;;;4943222;29;20028;-69
2021/09/02 07:57:26;;;;;;;9.70;6.07;;;14.60;90.70;;;;;;4946355;28;20460;-69
2021/09/02 07:59:52;;;;;;;9.90;5.85;;;14.70;90.40;;;;;;4943732;28;20034;-69
2021/09/02 08:02:18;;;;;;;11.88;6.70;;;14.70;90.10;;;;;;4934498;28;20126;-69
2021/09/02 08:04:43;;;;;;;9.23;6.07;;;14.80;90.30;;;;;;4933720;29;20488;-69
2021/09/02 08:07:09;;;;;;;9.07;6.10;;;14.90;90.00;;;;;;4934241;29;20038;-69
2021/09/02 08:09:35;;;;;;;9.55;5.85;;;14.80;85.90;;;;;;4936553;28;20054;-69
2021/09/02 08:12:00;;;;;;;10.20;6.18;;;14.90;88.10;;;;;;4937149;29;20027;-69
2021/09/02 08:14:26;;;;;;;9.50;6.03;;;15.00;87.30;;;;;;4938139;28;20042;-69
2021/09/02 08:16:51;;;;;;;9.02;5.93;;;15.10;89.20;;;;;;4933714;28;20106;-68
2021/09/02 08:19:17;;;;;;;9.73;5.90;;;15.20;85.40;;;;;;4933582;28;20031;-69
2021/09/02 08:21:43;;;;;;;7.90;4.78;;;15.40;84.20;;;;;;4939886;29;20040;-69
2021/09/02 08:24:09;;;;;;;7.97;4.97;;;15.40;84.50;;;;;;4931229;29;20085;-69
2021/09/02 08:26:35;;;;;;;8.77;4.97;;;15.50;84.20;;;;;;4932795;29;20190;-69
2021/09/02 08:29:01;;;;;;;8.75;5.63;;;15.60;83.80;;;;;;4934906;29;20030;-69
2021/09/02 08:31:28;;;;;;;8.23;4.85;;;15.70;82.50;;;;;;4936680;29;20031;-68
2021/09/02 08:33:54;;;;;;;9.43;5.72;;;15.70;82.10;;;;;;4942202;29;20020;-69
2021/09/02 08:36:20;;;;;;;6.68;4.95;;;15.80;83.00;;;;;;4935129;29;20374;-69
2021/09/02 08:38:48;;;;;;;7.55;5.07;;;15.80;82.80;;;;;;4939848;29;20403;-69
2021/09/02 08:41:15;;;;;;;7.85;4.55;;;16.00;82.10;;;;;;4930734;29;20088;-69
2021/09/02 08:43:42;;;;;;;8.50;5.68;;;15.90;81.60;;;;;;4933891;29;20032;-69
2021/09/02 08:46:08;;;;;;;8.27;5.25;;;16.10;81.70;;;;;;4932576;29;20042;-69
2021/09/02 08:48:42;;;;;;;7.50;4.93;;;16.20;83.90;;;;;;4938310;29;20072;-68
2021/09/02 08:51:08;;;;;;;7.85;4.97;;;16.40;81.00;;;;;;4931877;28;20031;-68
2021/09/02 08:53:34;;;;;;;8.85;5.13;;;16.30;79.80;;;;;;4936966;28;20032;-70
2021/09/02 08:55:59;;;;;;;7.25;5.00;;;16.30;80.10;;;;;;4936586;28;20563;-70
2021/09/02 08:58:25;;;;;;;9.68;4.90;;;16.40;83.40;;;;;;4933836;29;20042;-70
2021/09/02 09:00:51;;;;;;;7.63;5.07;;;16.50;80.00;;;;;;4934195;28;20040;-69
2021/09/02 09:03:18;;;;;;;6.40;4.43;;;16.50;80.20;;;;;;4941790;29;20028;-69
2021/09/02 09:05:51;;;;;;;8.55;5.53;;;16.60;79.10;;;;;;4936439;29;20967;-69
2021/09/02 09:08:17;;;;;;;8.63;5.00;;;16.70;80.30;;;;;;4931907;29;20488;-69
2021/09/02 09:10:43;;;;;;;7.50;4.90;;;16.70;78.80;;;;;;4937360;28;20027;-69
2021/09/02 09:13:10;;;;;;;7.70;4.60;;;16.80;81.10;;;;;;4933353;28;20028;-70
2021/09/02 09:15:38;;;;;;;7.68;4.68;;;16.90;79.10;;;;;;4936137;28;20175;-69
2021/09/02 09:18:24;;;;;;;7.38;4.63;;;17.10;79.60;;;;;;4937653;29;20112;-69
2021/09/02 09:21:08;;;;;;;7.47;4.32;;;17.20;81.10;;;;;;4931411;29;20044;-69
2021/09/02 09:23:53;;;;;;;5.15;3.63;;;17.40;77.70;;;;;;4933035;29;20036;-69
2021/09/02 09:26:19;;;;;;;6.88;3.75;;;17.30;75.10;;;;;;4939021;29;20027;-69
2021/09/02 09:28:45;;;;;;;7.55;4.22;;;17.40;77.10;;;;;;4939852;29;20353;-69
2021/09/02 09:31:33;;;;;;;6.82;3.80;;;17.50;75.20;;;;;;4939968;28;20031;-69
2021/09/02 09:34:05;;;;;;;6.80;4.03;;;17.60;75.90;;;;;;4935071;29;20031;-69
2021/09/02 09:36:34;;;;;;;4.95;3.70;;;17.70;73.80;;;;;;4931908;29;20024;-69
2021/09/02 09:39:11;;;;;;;5.45;4.07;;;17.70;74.50;;;;;;4941137;29;20059;-69
2021/09/02 09:41:38;;;;;;;7.57;4.15;;;17.80;75.10;;;;;;4955579;28;20047;-70
2021/09/02 09:44:25;;;;;;;4.97;3.60;;;17.80;72.30;;;;;;4931734;29;20031;-69
2021/09/02 09:47:15;;;;;;;6.90;4.22;;;18.00;77.50;;;;;;4926855;29;20497;-69
2021/09/02 09:49:42;;;;;;;8.10;4.45;;;18.00;75.00;;;;;;4933515;29;20027;-68
2021/09/02 09:52:17;;;;;;;6.57;4.38;;;18.10;73.10;;;;;;4931707;28;20032;-69
2021/09/02 09:54:43;;;;;;;6.78;4.80;;;18.10;73.10;;;;;;4937332;29;20031;-69
2021/09/02 09:57:09;;;;;;;5.80;3.75;;;18.10;75.80;;;;;;4938483;28;20118;-69
2021/09/02 09:59:36;;;;;;;7.03;4.05;;;18.20;74.80;;;;;;4940577;29;20102;-69
2021/09/02 10:02:03;;;;;;;5.20;3.75;;;18.30;71.90;;;;;;4927573;29;20047;-68
2021/09/02 10:04:31;;;;;;;5.88;3.72;;;18.20;70.00;;;;;;4936969;28;20102;-69
2021/09/02 10:06:57;;;;;;;5.65;4.00;;;18.20;69.80;;;;;;4931135;29;20023;-69
2021/09/02 10:09:23;;;;;;;8.60;4.00;;;18.30;69.10;;;;;;4934021;29;20485;-69
2021/09/02 10:11:48;;;;;;;6.78;4.10;;;18.30;70.90;;;;;;4934273;29;20034;-69
2021/09/02 10:14:14;;;;;;;5.60;3.78;;;18.30;70.00;;;;;;4931995;29;20082;-69
2021/09/02 10:16:40;;;;;;;5.47;3.55;;;18.40;69.50;;;;;;4927503;29;20031;-69
2021/09/02 10:19:06;;;;;;;7.40;3.88;;;18.50;69.80;;;;;;4930742;29;20046;-69
2021/09/02 10:21:34;;;;;;;5.15;3.50;;;18.60;71.70;;;;;;4931924;29;20054;-69
2021/09/02 10:24:36;;;;;;;4.75;3.35;;;18.60;67.30;;;;;;4934995;29;20023;-69
2021/09/02 10:27:17;;;;;;;4.38;3.28;;;18.60;66.70;;;;;;4930663;29;20043;-69
2021/09/02 10:29:44;;;;;;;5.30;3.40;;;18.80;66.60;;;;;;4936649;29;20094;-69
2021/09/02 10:32:27;;;;;;;5.45;3.63;;;18.80;65.70;;;;;;4931192;28;20059;-70
2021/09/02 10:35:06;;;;;;;6.10;3.78;;;18.70;66.60;;;;;;4930428;29;20038;-69
2021/09/02 10:37:34;;;;;;;5.95;4.13;;;18.80;68.50;;;;;;4932163;29;20362;-69
2021/09/02 10:40:06;;;;;;;8.10;4.25;;;19.00;68.10;;;;;;4936665;28;20047;-70
2021/09/02 10:42:43;;;;;;;5.97;4.20;;;19.00;67.70;;;;;;4939998;29;20050;-69
2021/09/02 10:45:31;;;;;;;6.03;4.20;;;19.20;69.60;;;;;;4928890;29;20031;-70
2021/09/02 10:48:00;;;;;;;6.15;3.70;;;19.10;67.60;;;;;;4926633;29;20039;-69
2021/09/02 10:50:35;;;;;;;5.72;3.33;;;19.10;67.40;;;;;;4936754;28;20024;-69
2021/09/02 10:53:10;;;;;;;4.80;3.70;;;19.10;63.20;;;;;;4939767;29;20016;-69
2021/09/02 10:55:39;;;;;;;8.15;4.07;;;19.10;62.20;;;;;;4940120;29;20485;-69
2021/09/02 10:58:06;;;;;;;7.00;4.10;;;19.20;65.60;;;;;;4938776;29;20035;-69
2021/09/02 11:00:33;;;;;;;5.50;3.53;;;19.40;68.60;;;;;;4941249;28;20089;-69
2021/09/02 11:03:14;;;;;;;7.05;3.90;;;19.40;65.60;;;;;;4938040;28;20815;-70
2021/09/02 11:05:46;;;;;;;5.40;3.25;;;19.50;64.10;;;;;;4932297;29;20115;-69
2021/09/02 11:08:12;;;;;;;6.32;3.60;;;19.30;63.50;;;;;;4935851;29;20393;-70
2021/09/02 11:10:38;;;;;;;5.35;4.00;;;19.30;64.50;;;;;;4939174;28;20035;-70
2021/09/02 11:13:08;;;;;;;6.00;3.88;;;19.40;63.60;;;;;;4938313;29;20119;-69
2021/09/02 11:15:37;;;;;;;7.38;3.45;;;19.40;62.60;;;;;;4935103;29;20106;-69
2021/09/02 11:18:05;;;;;;;5.78;3.30;;;19.30;63.30;;;;;;4945340;28;20056;-69
2021/09/02 11:20:35;;;;;;;7.50;4.10;;;19.30;61.30;;;;;;4941896;28;20032;-70
2021/09/02 11:23:08;;;;;;;4.22;3.35;;;19.30;62.60;;;;;;4938756;28;20113;-69
2021/09/02 11:25:42;;;;;;;6.65;3.47;;;19.50;64.30;;;;;;4934967;29;20103;-69
2021/09/02 11:28:08;;;;;;;6.55;4.25;;;19.50;63.50;;;;;;4938320;29;20055;-69
2021/09/02 11:30:34;;;;;;;5.45;3.50;;;19.60;67.30;;;;;;4940758;28;20119;-69
2021/09/02 11:33:02;;;;;;;5.03;3.60;;;19.60;64.00;;;;;;4936779;29;20051;-69
2021/09/02 11:35:28;;;;;;;;;;;19.60;64.50;;;;;;4935781;28;20024;-69
2021/09/02 11:37:53;;;;;;;5.28;3.63;;;19.60;64.00;;;;;;4935787;29;19966;-69
2021/09/02 11:40:34;;;;;;;5.72;3.53;;;19.60;62.30;;;;;;4937155;29;20044;-69
2021/09/02 11:43:00;;;;;;;5.05;3.92;;;19.60;63.30;;;;;;4935273;29;20533;-69
2021/09/02 11:45:28;;;;;;;5.07;3.53;;;19.50;60.10;;;;;;4935618;29;20043;-69
2021/09/02 11:47:54;;;;;;;5.53;3.30;;;19.60;62.00;;;;;;4941827;28;20468;-69
2021/09/02 11:50:21;;;;;;;5.78;3.50;;;19.60;58.60;;;;;;4935239;29;20447;-70
2021/09/02 11:52:49;;;;;;;7.07;3.40;;;19.70;60.60;;;;;;4938304;29;20082;-70
2021/09/02 11:55:29;;;;;;;6.65;3.60;;;19.70;60.60;;;;;;4941938;29;20078;-70
2021/09/02 11:57:57;;;;;;;5.05;3.47;;;19.80;65.50;;;;;;4946800;28;20035;-69
2021/09/02 12:00:23;;;;;;;4.45;3.45;;;19.90;63.30;;;;;;4930765;28;20047;-69
2021/09/02 12:02:56;;;;;;;5.07;3.35;;;20.00;63.40;;;;;;4936565;29;20032;-70
2021/09/02 12:05:24;;;;;;;5.88;4.25;;;20.00;60.50;;;;;;4934591;29;20035;-70
2021/09/02 12:07:52;;;;;;;6.82;3.33;;;20.10;64.30;;;;;;4940076;28;20090;-69
2021/09/02 12:10:19;;;;;;;5.47;4.10;;;20.00;59.60;;;;;;4939642;29;20440;-69
2021/09/02 12:12:45;;;;;;;5.13;3.60;;;20.10;63.60;;;;;;4941145;29;20429;-69
2021/09/02 12:15:22;;;;;;;7.40;3.63;;;20.10;62.00;;;;;;4941200;28;20023;-69
2021/09/02 12:17:48;;;;;;;7.20;4.25;;;20.00;61.90;;;;;;4932020;29;20060;-70
2021/09/02 12:20:24;;;;;;;8.02;4.05;;;20.10;62.10;;;;;;4928095;29;20402;-70
2021/09/02 12:22:50;;;;;;;7.97;3.85;;;20.10;62.00;;;;;;4933689;29;20027;-69
2021/09/02 12:25:19;;;;;;;5.15;3.63;;;20.20;62.40;;;;;;4962591;28;20041;-69
2021/09/02 12:27:51;;;;;;;5.28;3.50;;;20.10;57.30;;;;;;4942107;29;20031;-69
2021/09/02 12:30:37;;;;;;;4.90;3.38;;;20.10;58.90;;;;;;4937229;29;20032;-70
2021/09/02 12:33:13;;;;;;;4.30;3.23;;;20.20;60.10;;;;;;4936088;29;20029;-69
2021/09/02 12:35:44;;;;;;;4.97;3.28;;;20.10;58.90;;;;;;4935140;28;20042;-69
2021/09/02 12:38:36;;;;;;;9.00;3.63;;;20.20;59.60;;;;;;4940117;29;20023;-69
2021/09/02 12:41:13;;;;;;;5.35;3.75;;;20.10;58.20;;;;;;4964485;28;20493;-69
2021/09/02 12:43:38;;;;;;;4.80;3.60;;;20.20;59.30;;;;;;4949960;28;20530;-69
2021/09/02 12:46:04;;;;;;;4.82;3.60;;;20.20;59.40;;;;;;4932955;28;20031;-71
2021/09/02 12:48:30;;;;;;;5.65;3.83;;;20.30;60.00;;;;;;4941601;29;20031;-69
2021/09/02 12:50:56;;;;;;;5.63;4.40;;;20.20;60.80;;;;;;4934717;28;20023;-69
2021/09/02 12:53:29;;;;;;;5.28;3.65;;;20.30;61.60;;;;;;4938425;29;20112;-69